Time;durP1;ratioP1;P1;durP2;ratioP2;P2;SDS_P1;SDS_P2;PMS_P1;PMS_P2;Temp;Humidity;BMP_temperature;BMP_pressure;BME280_temperature;BME280_humidity;BME280_pressure;Samples;Min_cycle;Max_cycle;Signal;HPM_P1;HPM_P2
2022/09/07 00:01:16;;;;;;;2.42;2.10;;;;;;;20.97;45.30;100190.97;5053271;28;20074;-35
2022/09/07 00:03:41;;;;;;;3.28;2.40;;;;;;;20.85;44.71;100183.06;5053018;28;20024;-36
2022/09/07 00:06:09;;;;;;;4.43;2.10;;;;;;;20.85;44.58;100183.88;5053311;28;20049;-36
2022/09/07 00:08:34;;;;;;;3.35;2.28;;;;;;;20.84;44.56;100184.13;5053363;28;20025;-36
2022/09/07 00:11:03;;;;;;;3.40;2.15;;;;;;;20.87;44.85;100178.19;5053084;28;20024;-36
2022/09/07 00:13:32;;;;;;;4.70;1.92;;;;;;;20.85;45.06;100186.56;5053318;28;20021;-37
2022/09/07 00:16:04;;;;;;;3.22;2.10;;;;;;;20.85;45.60;100191.16;5052900;28;20455;-37
2022/09/07 00:18:30;;;;;;;4.22;2.25;;;;;;;20.97;45.46;100188.25;5052746;28;20048;-37
2022/09/07 00:21:01;;;;;;;4.57;2.20;;;;;;;20.95;45.63;100185.00;5052900;28;20098;-37
2022/09/07 00:23:28;;;;;;;3.03;2.08;;;;;;;21.00;45.66;100190.41;5052995;28;20036;-37
2022/09/07 00:25:58;;;;;;;4.28;2.10;;;;;;;21.01;45.30;100190.16;5052147;28;20405;-37
2022/09/07 00:28:23;;;;;;;3.80;2.50;;;;;;;20.95;45.43;100193.94;5052987;28;20054;-37
2022/09/07 00:30:49;;;;;;;4.15;2.20;;;;;;;20.84;45.17;100190.34;5053064;28;20465;-37
2022/09/07 00:33:14;;;;;;;3.25;2.15;;;;;;;20.75;45.71;100193.78;5052953;28;20032;-36
2022/09/07 00:35:40;;;;;;;4.13;2.30;;;;;;;20.84;45.00;100194.94;5052428;28;20032;-36
2022/09/07 00:38:07;;;;;;;6.15;2.33;;;;;;;20.78;45.20;100201.38;5052764;28;20025;-36
2022/09/07 00:40:32;;;;;;;2.50;2.10;;;;;;;20.69;45.89;100201.03;5052708;28;20029;-37
2022/09/07 00:42:58;;;;;;;5.63;1.95;;;;;;;20.77;45.55;100207.88;5052799;28;20044;-37
2022/09/07 00:45:24;;;;;;;4.15;2.20;;;;;;;20.70;45.58;100205.41;5052722;28;20033;-37
2022/09/07 00:48:01;;;;;;;3.13;2.15;;;;;;;20.63;46.26;100202.91;5052126;28;20031;-37
2022/09/07 00:50:36;;;;;;;5.78;2.22;;;;;;;20.61;46.64;100206.94;5072147;28;20031;-36
2022/09/07 00:53:30;;;;;;;5.90;2.17;;;;;;;20.66;46.60;100207.00;5072293;28;20024;-36
2022/09/07 00:55:57;;;;;;;3.33;2.38;;;;;;;20.42;47.19;100195.69;5069935;28;20111;-37
2022/09/07 00:58:23;;;;;;;3.08;2.15;;;;;;;20.45;47.03;100197.88;5052285;28;20097;-36
2022/09/07 01:00:49;;;;;;;2.95;2.10;;;;;;;20.45;46.95;100204.09;5051098;28;20029;-36
2022/09/07 01:03:24;;;;;;;2.97;2.28;;;;;;;20.51;46.96;100204.94;5052022;28;20096;-36
2022/09/07 01:06:04;;;;;;;3.00;2.20;;;;;;;20.48;47.40;100203.56;5051946;28;20028;-37
2022/09/07 01:08:30;;;;;;;3.72;2.10;;;;;;;20.40;47.52;100198.63;5051907;28;20059;-37
2022/09/07 01:10:57;;;;;;;2.60;2.17;;;;;;;20.45;47.17;100200.59;5051526;28;20033;-37
2022/09/07 01:13:23;;;;;;;4.32;2.50;;;;;;;20.46;47.13;100196.78;5051980;28;20471;-37
2022/09/07 01:16:00;;;;;;;5.05;2.55;;;;;;;20.48;47.23;100200.03;5051708;28;20043;-37
2022/09/07 01:18:55;;;;;;;7.07;2.40;;;;;;;20.19;47.96;100200.34;5051734;28;20421;-36
2022/09/07 01:21:31;;;;;;;5.57;2.60;;;;;;;20.33;47.75;100197.22;5051507;28;20066;-37
2022/09/07 01:23:57;;;;;;;4.20;2.47;;;;;;;20.33;47.03;100189.91;5050642;28;20033;-37
2022/09/07 01:26:28;;;;;;;6.18;2.60;;;;;;;20.23;47.57;100190.66;5050544;28;20043;-37
2022/09/07 01:29:10;;;;;;;6.70;2.35;;;;;;;20.05;48.04;100199.13;5051560;28;20032;-37
2022/09/07 01:31:46;;;;;;;4.68;2.40;;;;;;;19.95;48.22;100189.03;5050318;28;20555;-37
2022/09/07 01:34:23;;;;;;;3.92;2.33;;;;;;;19.87;48.37;100198.41;5052013;28;20029;-37
2022/09/07 01:36:58;;;;;;;4.53;2.58;;;;;;;19.83;48.91;100197.28;5051554;28;20091;-38
2022/09/07 01:39:45;;;;;;;6.25;2.60;;;;;;;19.75;48.69;100192.34;5051076;28;20029;-37
2022/09/07 01:42:13;;;;;;;3.72;2.50;;;;;;;19.76;48.77;100187.75;5051626;28;20057;-37
2022/09/07 01:44:54;;;;;;;5.20;2.80;;;;;;;19.79;48.29;100188.06;5051350;28;20024;-37
2022/09/07 01:47:29;;;;;;;6.35;2.90;;;;;;;19.80;48.44;100180.75;5051814;28;20029;-36
2022/09/07 01:50:08;;;;;;;3.72;2.65;;;;;;;19.96;47.92;100177.16;5066557;28;20059;-37
2022/09/07 01:52:46;;;;;;;6.15;2.95;;;;;;;19.97;47.50;100176.09;5071684;28;20111;-36
2022/09/07 01:55:27;;;;;;;4.20;2.85;;;;;;;20.00;47.90;100177.47;5071434;28;20104;-36
2022/09/07 01:58:06;;;;;;;5.15;2.65;;;;;;;19.91;47.69;100175.25;5071417;28;20027;-37
2022/09/07 02:00:34;;;;;;;2.90;2.40;;;;;;;19.82;48.20;100165.13;5070971;28;20555;-37
2022/09/07 02:03:13;;;;;;;3.10;2.42;;;;;;;19.76;48.63;100169.66;5071116;28;20294;-36
2022/09/07 02:05:57;;;;;;;5.10;2.73;;;;;;;19.57;48.89;100173.72;5071383;28;20036;-36
2022/09/07 02:09:04;;;;;;;4.25;2.97;;;;;;;19.64;48.96;100179.75;5071116;28;20385;-37
2022/09/07 02:11:38;;;;;;;5.38;2.58;;;;;;;19.63;49.06;100176.25;5061209;28;20047;-36
2022/09/07 02:14:09;;;;;;;4.82;2.85;;;;;;;19.58;49.30;100181.59;5070007;28;20028;-36
2022/09/07 02:16:42;;;;;;;4.72;2.90;;;;;;;19.48;49.69;100176.88;5051394;28;20048;-36
2022/09/07 02:19:12;;;;;;;4.07;2.40;;;;;;;19.55;49.81;100173.97;5050843;28;20057;-37
2022/09/07 02:21:43;;;;;;;3.47;2.53;;;;;;;19.64;51.22;100182.47;5050762;28;20029;-37
2022/09/07 02:24:14;;;;;;;4.18;2.40;;;;;;;19.68;50.16;100187.09;5050872;28;20484;-36
2022/09/07 02:26:40;;;;;;;5.35;2.95;;;;;;;19.67;49.99;100179.25;5050809;28;20404;-36
2022/09/07 02:29:07;;;;;;;6.75;2.80;;;;;;;19.61;49.91;100174.84;5051071;28;20116;-36
2022/09/07 02:31:32;;;;;;;7.35;2.55;;;;;;;19.65;49.99;100178.72;5050507;28;20021;-36
2022/09/07 02:34:00;;;;;;;6.85;2.92;;;;;;;19.62;50.12;100169.22;5050620;28;20123;-36
2022/09/07 02:36:32;;;;;;;6.35;3.08;;;;;;;19.65;50.17;100178.72;5050400;28;20559;-36
2022/09/07 02:38:57;;;;;;;3.80;2.85;;;;;;;19.62;50.15;100160.31;5050981;28;20025;-36
2022/09/07 02:41:39;;;;;;;5.25;2.90;;;;;;;19.66;49.93;100172.22;5050662;28;20036;-36
2022/09/07 02:44:27;;;;;;;8.50;3.08;;;;;;;19.80;49.66;100161.88;5050481;28;20049;-36
2022/09/07 02:47:17;;;;;;;6.03;2.72;;;;;;;19.64;50.04;100163.56;5050565;28;20047;-36
2022/09/07 02:50:07;;;;;;;4.53;3.03;;;;;;;19.61;50.65;100169.47;5064338;28;20090;-37
2022/09/07 02:52:50;;;;;;;4.38;2.90;;;;;;;19.68;49.70;100164.69;5070656;28;20067;-36
2022/09/07 02:55:34;;;;;;;4.28;2.85;;;;;;;19.59;50.31;100168.91;5070198;28;20050;-36
2022/09/07 02:58:05;;;;;;;6.75;2.80;;;;;;;19.60;50.76;100170.53;5070915;28;20032;-37
2022/09/07 03:00:37;;;;;;;6.28;2.67;;;;;;;19.62;50.58;100177.31;5070556;28;20120;-36
2022/09/07 03:03:11;;;;;;;6.55;2.88;;;;;;;19.54;50.91;100173.19;5070276;28;20040;-37
2022/09/07 03:06:00;;;;;;;5.78;3.05;;;;;;;19.64;51.04;100174.38;5070508;28;20033;-36
2022/09/07 03:08:33;;;;;;;5.25;3.30;;;;;;;19.62;50.93;100173.81;5070528;28;20024;-36
2022/09/07 03:11:00;;;;;;;10.05;4.25;;;;;;;19.61;51.39;100177.56;5070360;28;20028;-36
2022/09/07 03:13:27;;;;;;;9.88;5.30;;;;;;;19.60;51.14;100175.94;5070593;28;20392;-36
2022/09/07 03:15:53;;;;;;;7.55;4.70;;;;;;;19.52;50.99;100174.50;5053765;28;20048;-36
2022/09/07 03:18:18;;;;;;;5.00;3.58;;;;;;;19.59;51.06;100172.44;5050357;28;20155;-36
2022/09/07 03:20:44;;;;;;;8.80;3.30;;;;;;;19.61;51.31;100174.84;5050112;28;20719;-36
2022/09/07 03:23:10;;;;;;;5.80;3.10;;;;;;;19.52;51.37;100169.09;5050330;28;20112;-36
2022/09/07 03:25:35;;;;;;;6.65;2.80;;;;;;;19.59;51.59;100171.59;5053727;28;20481;-36
2022/09/07 03:28:01;;;;;;;5.88;2.88;;;;;;;19.62;51.52;100168.41;5053451;28;20083;-37
2022/09/07 03:30:27;;;;;;;5.63;3.03;;;;;;;19.60;51.30;100175.94;5053854;28;20042;-36
2022/09/07 03:32:52;;;;;;;6.28;3.05;;;;;;;19.45;51.92;100177.38;5053997;28;20049;-37
2022/09/07 03:35:17;;;;;;;6.82;3.13;;;;;;;19.51;51.87;100180.97;5053962;28;20510;-36
2022/09/07 03:37:43;;;;;;;9.98;3.20;;;;;;;19.58;51.73;100181.59;5053701;28;20453;-36
2022/09/07 03:40:11;;;;;;;6.95;3.22;;;;;;;19.52;51.74;100186.09;5053849;28;20414;-36
2022/09/07 03:42:37;;;;;;;7.22;3.10;;;;;;;19.59;52.01;100187.78;5054086;28;20382;-37
2022/09/07 03:45:04;;;;;;;13.98;8.75;;;;;;;19.57;51.73;100190.72;5053832;28;20039;-37
2022/09/07 03:47:29;;;;;;;24.52;15.43;;;;;;;19.57;51.74;100190.72;5052975;28;20036;-37
2022/09/07 03:49:55;;;;;;;10.43;5.50;;;;;;;19.67;51.26;100193.56;5068625;28;20051;-36
2022/09/07 03:52:20;;;;;;;7.47;3.80;;;;;;;19.71;51.58;100188.50;5073719;28;20036;-36
2022/09/07 03:54:46;;;;;;;10.85;3.90;;;;;;;19.80;51.50;100199.66;5073359;28;20032;-36
2022/09/07 03:57:12;;;;;;;6.90;4.03;;;;;;;19.83;51.74;100194.56;5073510;28;20029;-36
2022/09/07 03:59:37;;;;;;;9.82;3.60;;;;;;;19.76;51.61;100196.66;5073006;28;20028;-36
2022/09/07 04:02:03;;;;;;;8.75;3.80;;;;;;;19.82;51.52;100211.88;5073091;28;20520;-36
2022/09/07 04:04:29;;;;;;;9.82;4.00;;;;;;;19.83;51.62;100201.88;5073441;28;20032;-36
2022/09/07 04:06:54;;;;;;;6.13;4.07;;;;;;;20.43;53.88;100210.84;5073525;28;20424;-36
2022/09/07 04:09:20;;;;;;;10.20;4.80;;;;;;;20.67;50.40;100208.59;5072846;28;20561;-37
2022/09/07 04:11:45;;;;;;;5.68;3.60;;;;;;;20.87;50.51;100207.94;5072004;28;20028;-36
2022/09/07 04:14:11;;;;;;;9.45;3.90;;;;;;;20.86;49.69;100207.13;5070383;28;20038;-37
2022/09/07 04:16:37;;;;;;;6.80;3.53;;;;;;;20.73;49.41;100212.16;5052806;28;20033;-37
2022/09/07 04:19:03;;;;;;;11.40;4.03;;;;;;;20.47;49.84;100212.75;5052921;28;20059;-35
2022/09/07 04:21:30;;;;;;;13.52;5.32;;;;;;;20.41;50.14;100219.19;5052386;28;20036;-37
2022/09/07 04:23:56;;;;;;;20.85;10.82;;;;;;;20.44;50.53;100215.97;5053067;28;20029;-36
2022/09/07 04:26:25;;;;;;;24.52;14.30;;;;;;;20.65;50.38;100216.16;5052989;28;20079;-37
2022/09/07 04:28:51;;;;;;;14.65;6.57;;;;;;;20.82;51.53;100224.13;5052368;28;20476;-37
2022/09/07 04:31:18;;;;;;;11.73;4.40;;;;;;;20.60;51.97;100219.66;5039630;28;20082;-37
2022/09/07 04:33:44;;;;;;;10.23;4.70;;;;;;;21.10;51.03;100231.09;5043124;28;20021;-37
2022/09/07 04:36:11;;;;;;;10.73;4.47;;;;;;;21.29;50.21;100226.03;5052382;28;20036;-35
2022/09/07 04:38:38;;;;;;;10.90;4.43;;;;;;;21.52;49.75;100230.25;5052647;28;20048;-36
2022/09/07 04:41:11;;;;;;;12.23;4.22;;;;;;;21.35;49.17;100238.53;5052057;28;20164;-37
2022/09/07 04:43:38;;;;;;;7.80;4.05;;;;;;;21.60;49.30;100245.97;5052565;28;20056;-37
2022/09/07 04:46:05;;;;;;;5.30;3.80;;;;;;;21.90;47.91;100227.41;5052097;28;20029;-37
2022/09/07 04:48:31;;;;;;;7.93;3.45;;;;;;;22.30;47.31;100242.16;5052384;28;20036;-37
2022/09/07 04:51:07;;;;;;;9.13;3.47;;;;;;;22.50;46.56;100239.44;5051997;28;20397;-36
2022/09/07 04:53:34;;;;;;;6.72;3.42;;;;;;;22.64;46.02;100237.00;5051528;28;20032;-36
2022/09/07 04:56:00;;;;;;;7.82;3.47;;;;;;;23.09;45.26;100242.69;5051454;28;20040;-36
2022/09/07 04:58:25;;;;;;;8.48;3.58;;;;;;;23.08;45.75;100250.00;5051664;28;20139;-36
2022/09/07 05:00:51;;;;;;;4.47;3.13;;;;;;;23.29;44.87;100247.25;5051207;28;20038;-36
2022/09/07 05:03:16;;;;;;;9.88;3.40;;;;;;;23.87;43.44;100247.56;5051204;28;20040;-37
2022/09/07 05:05:43;;;;;;;12.70;3.63;;;;;;;23.86;42.99;100254.13;5051780;28;20021;-37
2022/09/07 05:08:10;;;;;;;11.80;3.58;;;;;;;24.17;42.34;100254.75;5051745;28;20032;-36
2022/09/07 05:10:35;;;;;;;6.30;3.42;;;;;;;24.38;41.56;100254.63;5051113;28;20029;-36
2022/09/07 05:13:01;;;;;;;6.22;4.05;;;;;;;24.38;41.11;100252.69;5051355;28;20055;-36
2022/09/07 05:15:30;;;;;;;9.43;3.58;;;;;;;24.15;41.65;100247.97;5050926;28;20474;-36
2022/09/07 05:17:57;;;;;;;11.70;3.65;;;;;;;24.86;40.30;100248.53;5050572;28;20083;-36
2022/09/07 05:20:22;;;;;;;6.28;3.55;;;;;;;25.43;39.38;100251.50;5050728;28;20041;-35
2022/09/07 05:22:52;;;;;;;7.07;3.70;;;;;;;25.67;38.54;100256.94;5051139;28;20144;-36
2022/09/07 05:25:18;;;;;;;8.95;4.00;;;;;;;26.15;37.86;100254.13;5050901;28;20025;-36
2022/09/07 05:27:43;;;;;;;24.23;18.85;;;;;;;26.56;36.85;100252.69;5051402;28;20029;-36
2022/09/07 05:30:10;;;;;;;20.45;14.15;;;;;;;26.91;36.67;100249.38;5051065;28;20139;-36
2022/09/07 05:32:35;;;;;;;10.57;6.45;;;;;;;26.80;36.56;100255.31;5051280;28;20025;-36
2022/09/07 05:35:01;;;;;;;9.35;4.82;;;;;;;26.32;37.30;100253.63;5050697;28;20341;-36
2022/09/07 05:37:26;;;;;;;4.85;3.22;;;;;;;26.68;36.68;100253.06;5051289;28;20109;-36
2022/09/07 05:39:54;;;;;;;6.63;3.35;;;;;;;27.22;35.70;100259.72;5051134;28;20033;-36
2022/09/07 05:42:20;;;;;;;5.30;2.95;;;;;;;27.64;34.73;100260.56;5051011;28;20085;-36
2022/09/07 05:44:45;;;;;;;6.00;3.42;;;;;;;28.14;34.05;100259.81;5050660;28;20024;-36
2022/09/07 05:47:13;;;;;;;10.23;3.70;;;;;;;28.22;33.90;100255.53;5050374;28;20031;-36
2022/09/07 05:49:38;;;;;;;9.23;3.35;;;;;;;28.73;33.23;100258.94;5064294;28;20138;-36
2022/09/07 05:52:04;;;;;;;8.57;3.22;;;;;;;28.99;32.74;100261.84;5071016;28;20016;-37
2022/09/07 05:54:29;;;;;;;8.75;3.47;;;;;;;29.34;32.34;100253.78;5070980;28;20090;-37
2022/09/07 05:56:55;;;;;;;6.60;3.20;;;;;;;29.10;32.05;100246.75;5070412;28;20032;-37
2022/09/07 05:59:20;;;;;;;7.93;3.03;;;;;;;29.52;31.43;100244.50;5052128;28;20032;-36
2022/09/07 06:01:46;;;;;;;4.90;2.70;;;;;;;29.65;31.54;100244.72;5050983;28;20075;-36
2022/09/07 06:04:11;;;;;;;6.43;3.22;;;;;;;30.12;30.68;100250.41;5050298;28;20094;-36
2022/09/07 06:06:39;;;;;;;7.07;3.10;;;;;;;30.42;29.89;100242.38;5049972;28;20025;-37
2022/09/07 06:09:05;;;;;;;8.27;4.13;;;;;;;30.69;29.69;100249.41;5050219;28;20113;-36
2022/09/07 06:11:31;;;;;;;5.00;3.53;;;;;;;30.95;29.10;100243.88;5048535;28;20090;-36
2022/09/07 06:13:56;;;;;;;8.65;2.70;;;;;;;31.16;28.44;100252.22;5050310;28;20029;-37
2022/09/07 06:16:22;;;;;;;4.50;2.70;;;;;;;31.45;28.65;100240.41;5048593;28;20020;-42
2022/09/07 06:18:48;;;;;;;4.88;2.65;;;;;;;31.71;27.79;100245.00;5049084;28;20060;-44
2022/09/07 06:21:19;;;;;;;6.68;2.63;;;;;;;31.49;27.99;100246.91;5062533;28;20028;-45
2022/09/07 06:23:46;;;;;;;6.95;3.03;;;;;;;31.58;28.05;100240.56;5069759;28;20027;-45
2022/09/07 06:26:12;;;;;;;7.05;2.97;;;;;;;31.40;28.06;100239.81;5069665;28;20036;-43
2022/09/07 06:28:46;;;;;;;8.35;3.00;;;;;;;31.54;27.48;100237.66;5069715;28;20448;-47
2022/09/07 06:31:17;;;;;;;6.88;2.90;;;;;;;31.82;27.20;100243.47;5069863;28;20025;-45
2022/09/07 06:33:43;;;;;;;8.10;3.00;;;;;;;31.87;27.12;100239.69;5069902;28;20425;-46
2022/09/07 06:36:14;;;;;;;7.72;2.95;;;;;;;32.08;27.01;100239.72;5070337;28;20016;-43
2022/09/07 06:38:40;;;;;;;4.00;2.55;;;;;;;32.22;26.60;100237.50;5068917;28;20029;-45
2022/09/07 06:41:21;;;;;;;5.68;2.90;;;;;;;32.38;25.94;100237.69;5069631;28;20632;-43
2022/09/07 06:43:47;;;;;;;5.35;2.67;;;;;;;32.53;26.09;100241.75;5069717;28;20112;-42
2022/09/07 06:46:13;;;;;;;5.50;2.97;;;;;;;32.90;25.83;100239.09;5069522;28;20024;-46
2022/09/07 06:48:39;;;;;;;7.85;3.10;;;;;;;33.33;25.41;100239.75;5069444;28;20063;-44
2022/09/07 06:51:08;;;;;;;6.88;3.08;;;;;;;33.43;25.16;100242.81;5069003;28;20048;-45
2022/09/07 06:53:36;;;;;;;9.60;3.20;;;;;;;33.54;25.29;100240.41;5068948;28;20104;-47
2022/09/07 06:56:05;;;;;;;6.20;3.17;;;;;;;33.39;25.14;100252.16;5069329;28;20437;-44
2022/09/07 06:58:31;;;;;;;9.02;3.80;;;;;;;33.55;25.25;100249.47;5071156;28;20104;-43
2022/09/07 07:00:57;;;;;;;6.07;3.22;;;;;;;33.84;25.06;100249.25;5072315;28;20457;-44
2022/09/07 07:03:22;;;;;;;4.75;2.75;;;;;;;33.28;25.15;100249.84;5072124;28;20038;-44
2022/09/07 07:05:52;;;;;;;4.55;2.88;;;;;;;32.80;25.47;100256.09;5072140;28;20024;-45
2022/09/07 07:08:19;;;;;;;5.72;3.20;;;;;;;32.10;26.61;100253.94;5072846;28;20021;-42
2022/09/07 07:10:45;;;;;;;5.63;2.55;;;;;;;32.72;25.67;100255.81;5071929;28;20098;-44
2022/09/07 07:13:10;;;;;;;3.95;2.85;;;;;;;33.37;24.95;100268.22;5072272;28;20021;-43
2022/09/07 07:15:36;;;;;;;4.90;2.40;;;;;;;33.57;24.61;100264.56;5072838;28;20024;-44
2022/09/07 07:18:01;;;;;;;4.03;2.30;;;;;;;33.77;24.37;100262.81;5056625;28;20143;-44
2022/09/07 07:20:27;;;;;;;5.72;2.92;;;;;;;33.47;24.72;100268.59;5050170;28;20111;-43
2022/09/07 07:22:53;;;;;;;4.38;2.65;;;;;;;33.65;23.84;100260.09;5050966;28;20097;-43
2022/09/07 07:25:19;;;;;;;10.07;2.88;;;;;;;33.48;23.87;100261.09;5057739;28;20028;-43
2022/09/07 07:27:45;;;;;;;7.72;2.80;;;;;;;33.35;24.66;100260.31;5052633;28;20031;-46
2022/09/07 07:30:15;;;;;;;5.80;2.63;;;;;;;33.08;25.39;100257.03;5059762;28;20020;-45
2022/09/07 07:32:41;;;;;;;5.38;2.60;;;;;;;33.27;25.50;100251.00;5055137;28;20023;-46
2022/09/07 07:35:07;;;;;;;9.70;3.15;;;;;;;33.52;25.02;100251.00;5051811;28;20025;-44
2022/09/07 07:37:33;;;;;;;4.65;2.53;;;;;;;33.34;25.37;100252.38;5056691;28;20086;-44
2022/09/07 07:39:59;;;;;;;6.40;3.00;;;;;;;33.60;25.13;100254.78;5058441;28;20513;-47
2022/09/07 07:42:25;;;;;;;7.35;3.38;;;;;;;33.72;24.88;100251.22;5055249;28;20094;-46
2022/09/07 07:44:50;;;;;;;5.72;2.50;;;;;;;33.72;24.75;100252.03;5056966;28;20496;-48
2022/09/07 07:47:16;;;;;;;4.75;2.80;;;;;;;33.70;24.88;100251.59;5051861;28;20036;-45
2022/09/07 07:49:41;;;;;;;13.40;3.60;;;;;;;34.20;24.57;100252.28;5065321;28;20173;-44
2022/09/07 07:52:07;;;;;;;6.95;3.03;;;;;;;34.12;24.59;100265.03;5072540;28;20451;-44
2022/09/07 07:54:36;;;;;;;6.75;2.70;;;;;;;34.47;24.19;100251.44;5072090;28;20028;-43
2022/09/07 07:57:01;;;;;;;;;;;;;;;34.19;23.76;100265.25;5072752;28;20090;-45
2022/09/07 07:59:27;;;;;;;5.35;3.03;;;;;;;33.67;24.54;100269.63;5072525;28;19908;-43
2022/09/07 08:01:52;;;;;;;4.47;2.72;;;;;;;33.19;24.82;100264.91;5071940;28;20028;-44
2022/09/07 08:04:18;;;;;;;5.45;2.80;;;;;;;32.36;26.08;100256.50;5071439;28;20032;-41
2022/09/07 08:06:43;;;;;;;4.97;2.85;;;;;;;31.72;26.43;100257.59;5071906;28;20031;-42
2022/09/07 08:09:10;;;;;;;5.10;2.90;;;;;;;32.33;25.82;100255.22;5071152;28;20021;-44
2022/09/07 08:11:38;;;;;;;4.97;2.88;;;;;;;32.14;27.09;100246.66;5071858;28;20048;-44
2022/09/07 08:14:05;;;;;;;6.65;3.10;;;;;;;32.42;26.24;100249.63;5071619;28;20103;-43
2022/09/07 08:16:31;;;;;;;4.78;3.33;;;;;;;32.88;25.78;100244.16;5070743;28;20441;-43
2022/09/07 08:18:57;;;;;;;7.82;2.95;;;;;;;33.57;24.82;100242.47;5051644;28;20053;-44
2022/09/07 08:21:24;;;;;;;7.88;3.00;;;;;;;33.22;25.28;100240.19;5051828;28;20027;-44
2022/09/07 08:23:49;;;;;;;7.20;3.20;;;;;;;33.69;24.67;100245.25;5051758;28;20056;-45
2022/09/07 08:26:15;;;;;;;6.18;2.78;;;;;;;34.21;24.26;100240.06;5051451;28;20060;-45
2022/09/07 08:28:44;;;;;;;6.50;3.00;;;;;;;34.77;23.51;100242.00;5051612;28;20028;-43
2022/09/07 08:31:12;;;;;;;8.27;2.88;;;;;;;35.19;22.92;100235.97;5051267;28;20354;-36
2022/09/07 08:33:38;;;;;;;8.00;2.88;;;;;;;35.32;23.45;100237.47;5051353;28;20386;-37
2022/09/07 08:36:07;;;;;;;6.78;2.88;;;;;;;35.21;23.15;100228.91;5051341;28;20508;-36
2022/09/07 08:38:34;;;;;;;7.30;3.35;;;;;;;34.54;23.98;100226.00;5051520;28;20380;-36
2022/09/07 08:41:01;;;;;;;5.82;2.70;;;;;;;34.56;24.47;100229.19;5051407;28;20025;-35
2022/09/07 08:43:48;;;;;;;5.97;3.00;;;;;;;34.84;23.14;100236.63;5051127;28;20417;-36
2022/09/07 08:46:42;;;;;;;5.95;2.70;;;;;;;33.98;24.36;100226.75;5051144;28;20021;-36
2022/09/07 08:49:17;;;;;;;4.10;2.67;;;;;;;32.95;25.10;100230.63;5051371;28;20024;-36
2022/09/07 08:51:51;;;;;;;3.97;2.55;;;;;;;32.41;25.82;100225.19;5051225;28;20028;-36
2022/09/07 08:54:17;;;;;;;8.23;2.60;;;;;;;33.09;25.57;100217.31;5050780;28;20087;-37
2022/09/07 08:56:50;;;;;;;6.43;2.45;;;;;;;33.15;25.77;100220.69;5050980;28;20025;-43
2022/09/07 08:59:23;;;;;;;4.38;2.40;;;;;;;33.41;25.16;100212.03;5050758;28;20024;-43
2022/09/07 09:01:48;;;;;;;4.63;2.50;;;;;;;33.38;25.14;100206.44;5051012;28;20461;-43
2022/09/07 09:04:20;;;;;;;5.40;2.38;;;;;;;32.49;27.07;100211.31;5050975;28;20029;-43
2022/09/07 09:07:22;;;;;;;4.38;2.42;;;;;;;32.20;26.87;100198.50;5051009;28;20056;-45
2022/09/07 09:10:15;;;;;;;3.75;2.40;;;;;;;31.90;26.28;100197.78;5050408;28;20059;-44
2022/09/07 09:12:57;;;;;;;4.22;2.20;;;;;;;31.06;26.92;100195.69;5049350;28;20028;-43
2022/09/07 09:15:30;;;;;;;3.70;2.40;;;;;;;31.22;26.47;100193.16;5050649;28;20040;-43
2022/09/07 09:18:20;;;;;;;6.47;2.20;;;;;;;31.28;26.54;100183.63;5049831;28;20068;-43
2022/09/07 09:20:52;;;;;;;5.38;2.20;;;;;;;30.47;26.68;100182.63;5049871;28;20429;-43
2022/09/07 09:23:22;;;;;;;3.47;2.10;;;;;;;30.31;27.01;100182.31;5050132;28;20040;-47
2022/09/07 09:26:00;;;;;;;4.55;2.10;;;;;;;29.15;27.98;100178.16;5050240;28;20108;-43
2022/09/07 09:28:26;;;;;;;4.65;2.40;;;;;;;28.99;28.31;100176.94;5049844;28;20032;-43
2022/09/07 09:30:51;;;;;;;4.07;2.20;;;;;;;29.24;27.68;100179.00;5049551;28;20033;-43
2022/09/07 09:33:20;;;;;;;5.85;2.25;;;;;;;29.02;26.45;100179.84;5050295;28;20021;-44
2022/09/07 09:35:48;;;;;;;4.90;2.30;;;;;;;29.05;26.83;100168.28;5050178;28;20056;-45
2022/09/07 09:38:34;;;;;;;2.63;2.20;;;;;;;28.83;28.01;100171.88;5050225;28;20663;-43
2022/09/07 09:41:10;;;;;;;3.17;2.00;;;;;;;29.48;27.12;100177.75;5049705;28;20036;-46
2022/09/07 09:43:42;;;;;;;2.70;2.10;;;;;;;30.71;26.40;100171.09;5049993;28;20075;-47
2022/09/07 09:46:36;;;;;;;3.58;2.05;;;;;;;29.69;27.77;100163.41;5049959;28;20025;-43
2022/09/07 09:49:18;;;;;;;3.55;2.20;;;;;;;29.18;28.39;100161.06;5049791;28;20029;-47
2022/09/07 09:51:55;;;;;;;2.65;2.10;;;;;;;29.67;28.15;100160.19;5049778;28;20032;-44
2022/09/07 09:54:31;;;;;;;5.07;2.70;;;;;;;29.98;28.17;100147.13;5050288;28;20053;-46
2022/09/07 09:56:57;;;;;;;2.40;2.10;;;;;;;30.13;27.71;100151.31;5050718;28;20035;-44
2022/09/07 09:59:27;;;;;;;5.50;2.15;;;;;;;29.17;28.90;100139.50;5050492;28;20111;-46
2022/09/07 10:01:53;;;;;;;6.25;2.20;;;;;;;29.85;28.10;100142.63;5050549;28;20033;-44
2022/09/07 10:04:24;;;;;;;2.78;2.10;;;;;;;29.76;27.55;100134.41;5050085;28;20028;-45
2022/09/07 10:06:52;;;;;;;5.00;2.15;;;;;;;29.52;28.53;100136.78;5050205;28;20040;-44
2022/09/07 10:09:33;;;;;;;5.00;2.33;;;;;;;29.71;28.26;100136.47;5050751;28;20033;-43
2022/09/07 10:12:00;;;;;;;3.47;2.05;;;;;;;30.14;27.41;100131.00;5050028;28;20111;-43
2022/09/07 10:14:32;;;;;;;3.75;2.05;;;;;;;30.77;27.04;100123.06;5050680;28;20397;-45
2022/09/07 10:16:59;;;;;;;3.47;2.08;;;;;;;30.71;27.15;100116.16;5050148;28;20025;-46
2022/09/07 10:19:36;;;;;;;3.28;2.00;;;;;;;29.96;27.87;100118.44;5050512;28;20045;-44
2022/09/07 10:22:35;;;;;;;4.43;2.20;;;;;;;29.66;28.17;100110.00;5050108;28;20037;-47
2022/09/07 10:25:21;;;;;;;2.53;1.98;;;;;;;30.37;27.50;100106.13;5048805;28;20134;-45
2022/09/07 10:27:46;;;;;;;4.10;2.13;;;;;;;30.63;26.72;100097.75;5049982;28;20124;-44
2022/09/07 10:30:15;;;;;;;3.38;2.25;;;;;;;30.62;26.49;100096.16;5050389;28;20029;-46
2022/09/07 10:33:01;;;;;;;5.15;2.35;;;;;;;31.16;25.94;100088.13;5051113;28;20017;-45
2022/09/07 10:35:39;;;;;;;6.10;2.28;;;;;;;30.46;25.96;100093.13;5054121;28;20576;-43
2022/09/07 10:38:21;;;;;;;2.60;1.92;;;;;;;30.23;26.42;100084.31;5054176;28;20045;-46
2022/09/07 10:41:02;;;;;;;4.63;2.20;;;;;;;30.28;27.11;100075.09;5053653;28;20584;-43
2022/09/07 10:43:43;;;;;;;7.00;2.20;;;;;;;30.49;26.54;100076.03;5053045;28;20494;-44
2022/09/07 10:46:51;;;;;;;2.75;2.20;;;;;;;31.28;25.77;100083.84;5050819;28;20070;-46
2022/09/07 10:49:24;;;;;;;3.28;2.15;;;;;;;30.38;26.59;100097.53;5033311;28;20082;-44
2022/09/07 10:52:08;;;;;;;4.90;2.10;;;;;;;28.68;28.62;100084.69;5050334;28;20032;-43
2022/09/07 10:54:37;;;;;;;3.45;2.30;;;;;;;29.49;28.47;100072.44;5050925;28;20025;-44
2022/09/07 10:57:11;;;;;;;5.57;2.42;;;;;;;30.53;27.04;100065.19;5053392;28;20100;-46
2022/09/07 10:59:48;;;;;;;3.95;2.08;;;;;;;30.35;27.41;100067.22;5051183;28;20041;-47
2022/09/07 11:02:41;;;;;;;3.30;2.30;;;;;;;31.04;26.39;100066.06;5051121;28;20547;-46
2022/09/07 11:05:18;;;;;;;5.38;2.60;;;;;;;31.70;25.71;100070.09;5053682;28;20033;-46
2022/09/07 11:07:49;;;;;;;5.40;2.17;;;;;;;31.41;25.78;100065.47;5054172;28;20035;-44
2022/09/07 11:10:20;;;;;;;4.43;2.40;;;;;;;30.69;26.77;100058.00;5054152;28;20178;-45
2022/09/07 11:12:46;;;;;;;3.65;2.35;;;;;;;31.06;26.91;100057.50;5053936;28;20032;-46
2022/09/07 11:15:11;;;;;;;5.05;2.22;;;;;;;30.91;26.03;100065.16;5053930;28;20107;-43
2022/09/07 11:17:59;;;;;;;7.35;2.28;;;;;;;31.20;25.93;100059.97;5052986;28;20140;-47
2022/09/07 11:20:34;;;;;;;2.40;2.20;;;;;;;31.12;25.96;100056.94;5053234;28;20056;-46
2022/09/07 11:23:13;;;;;;;5.18;2.22;;;;;;;30.82;26.90;100056.16;5053100;28;20575;-45
2022/09/07 11:25:42;;;;;;;3.38;2.10;;;;;;;31.62;25.39;100048.97;5053421;28;20040;-43
2022/09/07 11:28:16;;;;;;;4.20;2.13;;;;;;;32.16;24.40;100048.94;5051785;28;20024;-47
2022/09/07 11:30:49;;;;;;;3.10;2.13;;;;;;;31.19;25.92;100056.44;5052736;28;20020;-44
2022/09/07 11:33:23;;;;;;;6.03;2.25;;;;;;;31.57;25.42;100033.50;5052937;28;20087;-46
2022/09/07 11:36:01;;;;;;;4.95;2.20;;;;;;;31.46;25.41;100035.03;5052884;28;20056;-46
2022/09/07 11:38:45;;;;;;;2.65;2.00;;;;;;;30.84;26.92;100042.88;5052774;28;20032;-46
2022/09/07 11:41:32;;;;;;;3.83;2.25;;;;;;;30.64;26.42;100032.69;5052674;28;20385;-36